Accueil
METAR-TAF:

METAR-TAF

Aéroports :

Le Helder, Pays-Bas

latitude: 52-55N, longitude: 004-47E, altitude: 0 m

Observation

Le bulletin a été fait il y a 16 minutes, à 05:55 UTC
Vent 12 kt de est/nord-est
Température 17°C
Humidité 68%
Pression 1022 hPa
Visibilité 10 km ou plus
pas de nuages en-dessous de 1500 mètres et pas de cumulonimbus.

METAR: EHKD 240555Z AUTO 06012KT 9999 OVC320 17/11 Q1022 BLU 06012KT CAVOK

Heure: 08:11 (06:11 UTC)

Prévision

Le bulletin a été fait il y a 1 heure et 40 minutes, à 04:31 UTC
Prévision valable du 24 à 05 UTC au 24 à 17 UTC
Vent 13 kt de est/nord-est
Visibilité 10 km ou plus
pas de nuages en-dessous de 1500 mètres et pas de cumulonimbus.

TAF: EHKD 240431Z 2405/2417 07013KT CAVOK

Observations et prévisions météorologiques de plus de 4000 aéroports (messages METAR et TAF).

Les stations disponibles sont représentées par des disques jaunes et rouges sur la carte.

Passer la souris dessus pour voir le nom de la station.

Cliquer dessus pour voir les observations et prévisions météorologiques.

Pour changer de carte: cliquez sur les boutons verts avec une croix noire pour zoomer, sur le bouton vert avec un tiret pour effectuer un zoom arrière, ou sur les flèches vertes pour les cartes adjacentes.


METAR-TAF: